Time;durP1;ratioP1;P1;durP2;ratioP2;P2;SDS_P1;SDS_P2;PMS_P1;PMS_P2;Temp;Humidity;BMP_temperature;BMP_pressure;BME280_temperature;BME280_humidity;BME280_pressure;Samples;Min_cycle;Max_cycle;Signal;HPM_P1;HPM_P2
2022/06/22 00:00:31;;;;;;;27.77;16.17;;;;;;;;;;5012590;28;20046;-65
2022/06/22 00:02:57;;;;;;;27.30;15.73;;;;;;;;;;5016392;28;20057;-66
2022/06/22 00:05:43;;;;;;;27.88;16.92;;;;;;;;;;5028185;28;20033;-65
2022/06/22 00:08:13;;;;;;;26.70;16.25;;;;;;;;;;5030996;28;20042;-66
2022/06/22 00:10:51;;;;;;;29.75;16.40;;;;;;;;;;5011871;28;20092;-65
2022/06/22 00:13:19;;;;;;;25.55;16.10;;;;;;;;;;5031058;28;20049;-65
2022/06/22 00:16:05;;;;;;;25.67;16.30;;;;;;;;;;5029602;28;20257;-66
2022/06/22 00:18:31;;;;;;;27.92;15.75;;;;;;;;;;5033210;28;20563;-65
2022/06/22 00:20:58;;;;;;;25.20;16.08;;;;;;;;;;5014720;28;20543;-65
2022/06/22 00:23:34;;;;;;;27.58;16.92;;;;;;;;;;5016776;28;20099;-66
2022/06/22 00:26:08;;;;;;;26.88;15.90;;;;;;;;;;5032601;28;20048;-66
2022/06/22 00:28:36;;;;;;;25.67;16.00;;;;;;;;;;5032061;28;20051;-66
2022/06/22 00:31:15;;;;;;;31.13;16.98;;;;;;;;;;5034013;28;20537;-66
2022/06/22 00:34:11;;;;;;;23.70;16.25;;;;;;;;;;5035358;28;20386;-65
2022/06/22 00:36:37;;;;;;;27.38;16.35;;;;;;;;;;5012330;28;20512;-66
2022/06/22 00:39:18;;;;;;;36.78;16.35;;;;;;;;;;5032284;28;20069;-65
2022/06/22 00:41:50;;;;;;;29.73;17.65;;;;;;;;;;5018397;28;20056;-66
2022/06/22 00:44:17;;;;;;;25.45;16.80;;;;;;;;;;5033418;28;20561;-66
2022/06/22 00:47:05;;;;;;;28.48;17.33;;;;;;;;;;5032569;28;20523;-66
2022/06/22 00:49:31;;;;;;;25.42;16.58;;;;;;;;;;5032579;28;20048;-65
2022/06/22 00:52:02;;;;;;;26.48;17.98;;;;;;;;;;5021667;28;20042;-66
2022/06/22 00:54:29;;;;;;;28.30;17.58;;;;;;;;;;5032854;28;20051;-65
2022/06/22 00:56:59;;;;;;;26.80;17.65;;;;;;;;;;5032387;28;20122;-66
2022/06/22 00:59:40;;;;;;;26.45;17.75;;;;;;;;;;5032017;28;20045;-65
2022/06/22 01:02:18;;;;;;;26.35;17.75;;;;;;;;;;5032918;28;20042;-66
2022/06/22 01:04:46;;;;;;;33.22;18.85;;;;;;;;;;5033765;28;20042;-66
2022/06/22 01:07:35;;;;;;;27.60;17.95;;;;;;;;;;5032013;28;20124;-66
2022/06/22 01:10:06;;;;;;;31.80;19.10;;;;;;;;;;5033281;28;20042;-66
2022/06/22 01:12:42;;;;;;;27.52;17.98;;;;;;;;;;5031314;28;20122;-66
2022/06/22 01:15:30;;;;;;;27.13;17.50;;;;;;;;;;5034182;28;20048;-66
2022/06/22 01:18:08;;;;;;;29.65;18.30;;;;;;;;;;5032020;28;20509;-65
2022/06/22 01:20:52;;;;;;;30.73;17.98;;;;;;;;;;5032687;28;20136;-66
2022/06/22 01:23:21;;;;;;;30.15;18.95;;;;;;;;;;5002818;28;20088;-66
2022/06/22 01:26:05;;;;;;;29.40;18.98;;;;;;;;;;5034384;28;20048;-66
2022/06/22 01:28:31;;;;;;;30.10;18.88;;;;;;;;;;5022983;28;20045;-66
2022/06/22 01:31:03;;;;;;;30.70;18.52;;;;;;;;;;4999290;28;20132;-66
2022/06/22 01:33:34;;;;;;;34.45;19.05;;;;;;;;;;5032407;28;20045;-66
2022/06/22 01:36:27;;;;;;;31.13;17.77;;;;;;;;;;5016863;28;20053;-66
2022/06/22 01:38:53;;;;;;;29.55;18.10;;;;;;;;;;5018440;28;20111;-66
2022/06/22 01:41:19;;;;;;;;;;;;;;;;;;5052990;22;20461;-68
2022/06/22 01:43:48;;;;;;;24.63;17.23;;;;;;;;;;5027286;28;19968;-68
2022/06/22 01:46:26;;;;;;;31.20;17.10;;;;;;;;;;5029462;28;20041;-69
2022/06/22 01:48:55;;;;;;;26.88;17.30;;;;;;;;;;5015173;28;20125;-69
2022/06/22 01:51:26;;;;;;;28.38;17.90;;;;;;;;;;5026833;28;20057;-68
2022/06/22 01:54:04;;;;;;;30.65;18.33;;;;;;;;;;5028152;28;20044;-68
2022/06/22 01:56:39;;;;;;;29.35;17.85;;;;;;;;;;5020272;28;20045;-68
2022/06/22 01:59:14;;;;;;;26.10;16.73;;;;;;;;;;5013160;28;20137;-66
2022/06/22 02:01:49;;;;;;;25.13;17.55;;;;;;;;;;5027318;28;20041;-66
2022/06/22 02:04:16;;;;;;;29.10;17.60;;;;;;;;;;5029101;28;20457;-66
2022/06/22 02:09:35;;;;;;;26.80;15.60;;;;;;;;;;5010613;28;20077;-66
2022/06/22 02:12:20;;;;;;;28.05;15.15;;;;;;;;;;5024147;28;20466;-66
2022/06/22 02:14:52;;;;;;;24.40;15.07;;;;;;;;;;5029587;28;20148;-66
2022/06/22 02:17:20;;;;;;;24.40;15.30;;;;;;;;;;5028686;28;20045;-66
2022/06/22 02:20:06;;;;;;;22.15;15.13;;;;;;;;;;5011493;28;20100;-66
2022/06/22 02:22:32;;;;;;;28.75;15.57;;;;;;;;;;5024066;28;20132;-66
2022/06/22 02:24:58;;;;;;;27.80;16.27;;;;;;;;;;5029310;28;20128;-67
2022/06/22 02:27:29;;;;;;;26.17;15.50;;;;;;;;;;5026874;28;20053;-66
2022/06/22 02:29:59;;;;;;;23.95;15.15;;;;;;;;;;5028340;28;20053;-66
2022/06/22 02:32:29;;;;;;;23.70;14.82;;;;;;;;;;5026610;28;20049;-66
2022/06/22 02:34:56;;;;;;;26.55;16.30;;;;;;;;;;5028972;28;20430;-66
2022/06/22 02:37:25;;;;;;;24.38;15.88;;;;;;;;;;5026731;28;20119;-66
2022/06/22 02:39:53;;;;;;;26.90;16.77;;;;;;;;;;5028346;28;20045;-66
2022/06/22 02:45:07;;;;;;;23.55;14.63;;;;;;;;;;5010438;28;20053;-66
2022/06/22 02:47:47;;;;;;;24.85;15.43;;;;;;;;;;5010009;28;20373;-66
2022/06/22 02:50:32;;;;;;;28.60;16.52;;;;;;;;;;5027654;28;20050;-66
2022/06/22 02:53:05;;;;;;;26.02;15.95;;;;;;;;;;5026964;28;20124;-66
2022/06/22 02:55:35;;;;;;;24.70;15.73;;;;;;;;;;5026243;28;20434;-66
2022/06/22 02:58:02;;;;;;;25.75;16.60;;;;;;;;;;5008531;28;20064;-66
2022/06/22 03:00:34;;;;;;;25.70;17.00;;;;;;;;;;5013360;28;20442;-66
2022/06/22 03:03:04;;;;;;;27.63;16.17;;;;;;;;;;5025301;28;20050;-66
2022/06/22 03:05:30;;;;;;;29.73;16.25;;;;;;;;;;5027141;28;20124;-66
2022/06/22 03:07:59;;;;;;;26.40;15.63;;;;;;;;;;5026960;28;20172;-66
2022/06/22 03:10:28;;;;;;;29.20;15.70;;;;;;;;;;5025827;28;20513;-66
2022/06/22 03:12:56;;;;;;;23.38;14.90;;;;;;;;;;5027321;28;20351;-65
2022/06/22 03:15:24;;;;;;;23.75;15.15;;;;;;;;;;5025574;28;20080;-66
2022/06/22 03:17:50;;;;;;;25.42;16.05;;;;;;;;;;5024785;28;20061;-66
2022/06/22 03:20:16;;;;;;;;;;;;;;;;;;5025752;28;20049;-66
2022/06/22 03:22:45;;;;;;;23.63;15.50;;;;;;;;;;5017873;28;20064;-66
2022/06/22 03:25:14;;;;;;;24.08;15.00;;;;;;;;;;5021247;28;20192;-65
2022/06/22 03:27:42;;;;;;;22.00;14.10;;;;;;;;;;5024652;28;20517;-65
2022/06/22 03:30:18;;;;;;;23.92;14.52;;;;;;;;;;5023201;28;20060;-66
2022/06/22 03:33:06;;;;;;;24.13;14.63;;;;;;;;;;5025452;28;20191;-66
2022/06/22 03:35:35;;;;;;;23.10;13.65;;;;;;;;;;5022170;28;20049;-66
2022/06/22 03:38:13;;;;;;;20.02;11.93;;;;;;;;;;5024076;28;20412;-66
2022/06/22 03:40:45;;;;;;;20.83;12.98;;;;;;;;;;5023749;28;20129;-66
2022/06/22 03:43:23;;;;;;;19.23;12.57;;;;;;;;;;5025514;28;20219;-65
2022/06/22 03:45:55;;;;;;;23.10;13.63;;;;;;;;;;5022194;28;20088;-66
2022/06/22 03:48:29;;;;;;;25.33;14.32;;;;;;;;;;5011854;28;20076;-66
2022/06/22 03:51:07;;;;;;;23.98;13.88;;;;;;;;;;5024135;28;20354;-66
2022/06/22 03:53:55;;;;;;;25.92;13.75;;;;;;;;;;5027074;28;20179;-66
2022/06/22 03:56:21;;;;;;;;;;;;;;;;;;5029042;28;20172;-66
2022/06/22 03:58:48;;;;;;;23.27;13.70;;;;;;;;;;5013867;28;19995;-66
2022/06/22 04:01:15;;;;;;;24.83;14.13;;;;;;;;;;5026519;28;20175;-66
2022/06/22 04:03:41;;;;;;;22.45;14.05;;;;;;;;;;5028824;28;20053;-66
2022/06/22 04:06:07;;;;;;;;;;;;;;;;;;5029188;28;20094;-66
2022/06/22 04:08:36;;;;;;;23.63;13.35;;;;;;;;;;5018597;28;19967;-66
2022/06/22 04:11:14;;;;;;;22.80;13.05;;;;;;;;;;5035581;28;20122;-66
2022/06/22 04:14:01;;;;;;;29.13;15.48;;;;;;;;;;5029129;28;20091;-66
2022/06/22 04:16:33;;;;;;;26.48;16.10;;;;;;;;;;5026265;28;20162;-66
2022/06/22 04:19:18;;;;;;;28.15;16.40;;;;;;;;;;5028162;28;20132;-66
2022/06/22 04:21:46;;;;;;;25.27;16.50;;;;;;;;;;5026085;28;20053;-66
2022/06/22 04:24:19;;;;;;;25.10;16.00;;;;;;;;;;5026169;28;20053;-66
2022/06/22 04:27:04;;;;;;;27.73;16.42;;;;;;;;;;5022041;28;20099;-66
2022/06/22 04:29:53;;;;;;;23.88;15.93;;;;;;;;;;5027209;28;20053;-66
2022/06/22 04:32:31;;;;;;;24.05;15.50;;;;;;;;;;5016396;28;20069;-66
2022/06/22 04:35:02;;;;;;;26.50;16.55;;;;;;;;;;5027412;28;20155;-66
2022/06/22 04:37:28;;;;;;;25.77;16.45;;;;;;;;;;5022323;28;20053;-66
2022/06/22 04:39:58;;;;;;;28.65;17.35;;;;;;;;;;5027882;28;20076;-68
2022/06/22 04:42:24;;;;;;;29.45;17.80;;;;;;;;;;5027099;28;20183;-68
2022/06/22 04:44:51;;;;;;;25.00;16.88;;;;;;;;;;5027025;28;20128;-68
2022/06/22 04:47:17;;;;;;;28.98;17.45;;;;;;;;;;5018879;28;20053;-68
2022/06/22 04:49:49;;;;;;;27.77;17.58;;;;;;;;;;5025095;28;20478;-68
2022/06/22 04:52:18;;;;;;;24.58;16.70;;;;;;;;;;5025268;28;20049;-68
2022/06/22 04:54:45;;;;;;;27.55;17.25;;;;;;;;;;5025221;28;20114;-68
2022/06/22 04:57:14;;;;;;;30.40;17.30;;;;;;;;;;5011452;28;20424;-68
2022/06/22 04:59:40;;;;;;;28.92;17.38;;;;;;;;;;5022050;28;20076;-68
2022/06/22 05:02:10;;;;;;;31.15;17.70;;;;;;;;;;5027348;28;20041;-68
2022/06/22 05:04:39;;;;;;;27.90;16.73;;;;;;;;;;5025755;28;20129;-68
2022/06/22 05:07:24;;;;;;;29.33;16.50;;;;;;;;;;5026941;28;20102;-68
2022/06/22 05:09:55;;;;;;;30.35;17.23;;;;;;;;;;5015870;28;20389;-69
2022/06/22 05:12:24;;;;;;;25.48;15.88;;;;;;;;;;5024475;28;20045;-68
2022/06/22 05:14:50;;;;;;;24.52;13.95;;;;;;;;;;5028143;28;20045;-69
2022/06/22 05:17:27;;;;;;;26.15;14.13;;;;;;;;;;5031340;28;20045;-68
2022/06/22 05:20:05;;;;;;;23.40;12.95;;;;;;;;;;5033483;28;20141;-68
2022/06/22 05:22:31;;;;;;;21.00;12.13;;;;;;;;;;5035447;28;20048;-68
2022/06/22 05:24:59;;;;;;;21.40;12.02;;;;;;;;;;5030765;28;20138;-69
2022/06/22 05:27:27;;;;;;;20.98;11.82;;;;;;;;;;5028301;28;20042;-68
2022/06/22 05:30:06;;;;;;;21.33;12.82;;;;;;;;;;5026331;28;20469;-68
2022/06/22 05:32:34;;;;;;;22.73;13.15;;;;;;;;;;5026302;28;20515;-68
2022/06/22 05:35:04;;;;;;;24.50;12.82;;;;;;;;;;5030316;28;20034;-68
2022/06/22 05:37:35;;;;;;;19.63;11.05;;;;;;;;;;5033544;28;20068;-69
2022/06/22 05:40:02;;;;;;;20.48;12.05;;;;;;;;;;5037284;28;20505;-67
2022/06/22 05:42:30;;;;;;;20.67;11.68;;;;;;;;;;5029670;28;20054;-67
2022/06/22 05:44:56;;;;;;;22.55;12.27;;;;;;;;;;5025962;28;20350;-68
2022/06/22 05:47:29;;;;;;;21.17;11.23;;;;;;;;;;5025332;28;20055;-67
2022/06/22 05:49:57;;;;;;;22.60;11.88;;;;;;;;;;5025469;28;20111;-67
2022/06/22 05:52:23;;;;;;;24.30;11.90;;;;;;;;;;5026918;28;20156;-67
2022/06/22 05:54:58;;;;;;;22.63;11.02;;;;;;;;;;5025630;28;20140;-68
2022/06/22 05:57:35;;;;;;;22.23;9.75;;;;;;;;;;5026622;28;20072;-67
2022/06/22 06:00:05;;;;;;;16.77;9.38;;;;;;;;;;5024219;28;20113;-68
2022/06/22 06:02:31;;;;;;;16.52;9.73;;;;;;;;;;5025164;28;20076;-67
2022/06/22 06:04:57;;;;;;;21.58;10.55;;;;;;;;;;5024447;28;20082;-67
2022/06/22 06:07:26;;;;;;;19.70;9.82;;;;;;;;;;5024669;28;20528;-68
2022/06/22 06:09:52;;;;;;;23.77;10.40;;;;;;;;;;5024620;28;20045;-67
2022/06/22 06:12:25;;;;;;;19.27;8.95;;;;;;;;;;5026384;28;20112;-67
2022/06/22 06:14:52;;;;;;;18.58;9.85;;;;;;;;;;5024206;28;20041;-67
2022/06/22 06:17:23;;;;;;;15.15;8.07;;;;;;;;;;5023012;28;20576;-68
2022/06/22 06:19:51;;;;;;;20.98;8.10;;;;;;;;;;5021305;28;20050;-68
2022/06/22 06:22:17;;;;;;;13.57;6.13;;;;;;;;;;5024068;28;20357;-68
2022/06/22 06:27:34;;;;;;;;;;;;;;;;;;5028229;28;22115;-68
2022/06/22 06:27:38;;;;;;;16.30;7.03;;;;;;;;;;5020995;28;20250;-68
2022/06/22 06:30:13;;;;;;;16.23;6.57;;;;;;;;;;5028311;28;20061;-69
2022/06/22 06:33:02;;;;;;;16.42;6.68;;;;;;;;;;5031348;28;20053;-67
2022/06/22 06:35:34;;;;;;;15.18;6.88;;;;;;;;;;5025935;28;20359;-68
2022/06/22 06:38:00;;;;;;;17.30;7.30;;;;;;;;;;5032415;28;20124;-69
2022/06/22 06:40:41;;;;;;;14.23;6.13;;;;;;;;;;5023884;28;20190;-68
2022/06/22 06:43:10;;;;;;;15.63;5.18;;;;;;;;;;5025050;28;20111;-68
2022/06/22 06:45:36;;;;;;;16.75;6.18;;;;;;;;;;5026579;28;20051;-69
2022/06/22 06:48:07;;;;;;;18.15;5.63;;;;;;;;;;5026178;28;20137;-68
2022/06/22 06:50:39;;;;;;;15.93;6.07;;;;;;;;;;5026449;28;20465;-68
2022/06/22 06:53:26;;;;;;;11.88;5.32;;;;;;;;;;5022191;28;20049;-68
2022/06/22 06:55:59;;;;;;;15.52;6.13;;;;;;;;;;5023920;28;20499;-70
2022/06/22 06:58:30;;;;;;;12.20;5.15;;;;;;;;;;5025471;28;20067;-68
2022/06/22 07:00:56;;;;;;;13.65;5.28;;;;;;;;;;5024556;28;20123;-68
2022/06/22 07:03:25;;;;;;;13.98;5.20;;;;;;;;;;5024643;28;20408;-69
2022/06/22 07:05:52;;;;;;;13.43;5.00;;;;;;;;;;5024292;28;20095;-70
2022/06/22 07:08:24;;;;;;;14.32;5.90;;;;;;;;;;5026695;28;20049;-69
2022/06/22 07:10:56;;;;;;;17.23;5.63;;;;;;;;;;5026980;28;20060;-69
2022/06/22 07:13:22;;;;;;;15.73;5.47;;;;;;;;;;5025169;28;20089;-68
2022/06/22 07:15:51;;;;;;;13.98;4.97;;;;;;;;;;5033958;28;20488;-69
2022/06/22 07:18:27;;;;;;;12.80;5.55;;;;;;;;;;5031898;28;20113;-69
2022/06/22 07:21:05;;;;;;;13.88;4.97;;;;;;;;;;5032593;28;20045;-68
2022/06/22 07:24:01;;;;;;;15.27;5.85;;;;;;;;;;5032313;28;20123;-68
2022/06/22 07:26:33;;;;;;;15.88;6.40;;;;;;;;;;4998923;28;20073;-69
2022/06/22 07:29:05;;;;;;;16.20;6.22;;;;;;;;;;5035148;28;20041;-68
2022/06/22 07:31:37;;;;;;;17.17;6.65;;;;;;;;;;5033736;28;20048;-68
2022/06/22 07:34:13;;;;;;;15.23;6.13;;;;;;;;;;5030576;28;20381;-69
2022/06/22 07:36:51;;;;;;;16.92;6.03;;;;;;;;;;5030898;28;20488;-69
2022/06/22 07:39:49;;;;;;;15.50;6.10;;;;;;;;;;5034476;28;20100;-69
2022/06/22 07:42:15;;;;;;;15.68;5.75;;;;;;;;;;4992690;28;20119;-70
2022/06/22 07:44:42;;;;;;;16.77;5.38;;;;;;;;;;5036520;28;20198;-69
2022/06/22 07:47:11;;;;;;;15.23;4.78;;;;;;;;;;5031173;28;20075;-68
2022/06/22 07:49:44;;;;;;;12.57;5.13;;;;;;;;;;5035822;28;20428;-69
2022/06/22 07:52:13;;;;;;;13.48;5.15;;;;;;;;;;5025493;28;20069;-69
2022/06/22 07:54:48;;;;;;;13.45;5.60;;;;;;;;;;5032056;28;20045;-68
2022/06/22 07:57:17;;;;;;;15.52;5.80;;;;;;;;;;5029045;28;20133;-68
2022/06/22 07:59:48;;;;;;;16.63;5.47;;;;;;;;;;5027685;28;20401;-69
2022/06/22 08:02:19;;;;;;;16.17;5.55;;;;;;;;;;5029388;28;20151;-69
2022/06/22 08:04:53;;;;;;;15.73;6.57;;;;;;;;;;5030558;28;20046;-68
2022/06/22 08:07:24;;;;;;;19.20;6.95;;;;;;;;;;5027402;28;20129;-68
2022/06/22 08:09:50;;;;;;;16.90;7.47;;;;;;;;;;5029357;28;20399;-70
2022/06/22 08:12:21;;;;;;;13.98;6.30;;;;;;;;;;5020147;28;20346;-70
2022/06/22 08:14:49;;;;;;;16.35;7.28;;;;;;;;;;5024360;28;20141;-69
2022/06/22 08:17:18;;;;;;;19.67;7.35;;;;;;;;;;5024523;28;20037;-69
2022/06/22 08:19:44;;;;;;;16.58;7.97;;;;;;;;;;5022182;28;20053;-70
2022/06/22 08:22:10;;;;;;;;;;;;;;;;;;5019423;28;20056;-69
2022/06/22 08:24:40;;;;;;;15.07;6.10;;;;;;;;;;5024047;28;19921;-68
2022/06/22 08:27:06;;;;;;;12.80;4.95;;;;;;;;;;5014805;28;20045;-71
2022/06/22 08:29:34;;;;;;;18.08;6.55;;;;;;;;;;5023459;28;20143;-69
2022/06/22 08:32:06;;;;;;;18.10;5.95;;;;;;;;;;5014368;28;20469;-69
2022/06/22 08:34:34;;;;;;;16.65;6.07;;;;;;;;;;5013135;28;20052;-70
2022/06/22 08:37:06;;;;;;;13.63;6.50;;;;;;;;;;5017389;28;20122;-68
2022/06/22 08:40:07;;;;;;;19.95;6.55;;;;;;;;;;5015582;28;20056;-68
2022/06/22 08:42:34;;;;;;;17.00;5.95;;;;;;;;;;4984874;28;20062;-68
2022/06/22 08:45:00;;;;;;;17.33;6.53;;;;;;;;;;5017451;28;20056;-69
2022/06/22 08:47:35;;;;;;;17.35;6.32;;;;;;;;;;5026877;28;20108;-67
2022/06/22 08:50:07;;;;;;;19.67;7.95;;;;;;;;;;5027755;28;20041;-69
2022/06/22 08:52:36;;;;;;;14.82;7.13;;;;;;;;;;5023193;28;20045;-67
2022/06/22 08:55:18;;;;;;;16.05;7.45;;;;;;;;;;5026158;28;20033;-68
2022/06/22 08:57:51;;;;;;;16.58;7.10;;;;;;;;;;5019442;28;20053;-70
2022/06/22 09:00:23;;;;;;;14.65;6.10;;;;;;;;;;5021382;28;20049;-70
2022/06/22 09:03:08;;;;;;;14.50;5.90;;;;;;;;;;5008274;28;20049;-71
2022/06/22 09:05:58;;;;;;;17.73;7.10;;;;;;;;;;5016601;28;20107;-70
2022/06/22 09:08:43;;;;;;;16.15;6.43;;;;;;;;;;5003804;28;20115;-70
2022/06/22 09:11:17;;;;;;;14.32;5.80;;;;;;;;;;5016259;28;20089;-73
2022/06/22 09:14:03;;;;;;;18.45;6.60;;;;;;;;;;5021669;28;20111;-68
2022/06/22 09:16:46;;;;;;;17.17;6.60;;;;;;;;;;5027708;28;20046;-69
2022/06/22 09:19:30;;;;;;;18.63;6.75;;;;;;;;;;5014171;28;20125;-72
2022/06/22 09:22:19;;;;;;;17.17;7.30;;;;;;;;;;5027740;28;20094;-72
2022/06/22 09:24:59;;;;;;;14.50;6.53;;;;;;;;;;5022120;28;20068;-74
2022/06/22 09:27:38;;;;;;;15.18;6.70;;;;;;;;;;5025220;28;20048;-72
2022/06/22 09:30:12;;;;;;;14.82;6.28;;;;;;;;;;5026648;28;20060;-70
2022/06/22 09:32:51;;;;;;;18.67;6.03;;;;;;;;;;5025986;28;20119;-70
2022/06/22 09:35:35;;;;;;;19.88;6.60;;;;;;;;;;5026735;28;20037;-70
2022/06/22 09:38:04;;;;;;;15.50;5.75;;;;;;;;;;5029140;28;20430;-70
2022/06/22 09:40:37;;;;;;;18.00;6.15;;;;;;;;;;5028375;28;20095;-69
2022/06/22 09:43:12;;;;;;;18.80;5.63;;;;;;;;;;5016934;28;20116;-70
2022/06/22 09:45:52;;;;;;;14.23;5.75;;;;;;;;;;5027095;28;20051;-69
2022/06/22 09:48:34;;;;;;;16.60;6.50;;;;;;;;;;5019968;28;20391;-71
2022/06/22 09:51:06;;;;;;;15.00;5.60;;;;;;;;;;5035925;28;20053;-69
2022/06/22 09:53:39;;;;;;;16.20;6.10;;;;;;;;;;5026464;28;20485;-68
2022/06/22 09:56:22;;;;;;;14.40;6.03;;;;;;;;;;5007885;28;20398;-67
2022/06/22 09:58:51;;;;;;;16.67;6.13;;;;;;;;;;5016066;28;20055;-71
2022/06/22 10:01:24;;;;;;;15.50;5.70;;;;;;;;;;5026786;28;20107;-70
2022/06/22 10:04:09;;;;;;;15.63;6.28;;;;;;;;;;5027125;28;20073;-71
2022/06/22 10:06:35;;;;;;;15.75;5.95;;;;;;;;;;5007067;28;20108;-69
2022/06/22 10:09:01;;;;;;;;;;;;;;;;;;5024792;28;20041;-69
2022/06/22 10:11:33;;;;;;;15.30;6.28;;;;;;;;;;5026618;28;19944;-69
2022/06/22 10:14:11;;;;;;;17.23;6.53;;;;;;;;;;5026117;28;20185;-69
2022/06/22 10:16:44;;;;;;;12.73;5.40;;;;;;;;;;5026609;28;20368;-68
2022/06/22 10:19:36;;;;;;;15.25;6.00;;;;;;;;;;5027107;28;20068;-68
2022/06/22 10:22:12;;;;;;;19.95;7.07;;;;;;;;;;5025714;28;20051;-71
2022/06/22 10:24:41;;;;;;;16.77;7.47;;;;;;;;;;5024737;28;20057;-72
2022/06/22 10:27:07;;;;;;;17.48;6.38;;;;;;;;;;5027393;28;20455;-71
2022/06/22 10:29:33;;;;;;;;;;;;;;;;;;5027068;28;20124;-68
2022/06/22 10:32:18;;;;;;;13.52;6.50;;;;;;;;;;5021710;28;20304;-69
2022/06/22 10:35:22;;;;;;;15.25;6.60;;;;;;;;;;5021307;28;20056;-69
2022/06/22 10:37:48;;;;;;;16.13;6.97;;;;;;;;;;4980738;28;20133;-70
2022/06/22 10:45:08;;;;;;;;;;;;;;;;;;4984794;28;20054;-69
2022/06/22 10:46:00;;;;;;;16.00;7.13;;;;;;;;;;5022146;28;20061;-68
2022/06/22 10:48:29;;;;;;;17.05;6.57;;;;;;;;;;5025400;28;20137;-68
2022/06/22 10:51:01;;;;;;;18.48;7.85;;;;;;;;;;5024471;28;20085;-68
2022/06/22 10:53:39;;;;;;;18.48;7.15;;;;;;;;;;5019528;28;20049;-68
2022/06/22 10:56:24;;;;;;;19.90;7.15;;;;;;;;;;5019322;28;20065;-76
2022/06/22 10:59:11;;;;;;;14.55;6.68;;;;;;;;;;5026682;28;20128;-70
2022/06/22 11:01:45;;;;;;;13.85;6.20;;;;;;;;;;5020652;28;20202;-70
2022/06/22 11:04:17;;;;;;;15.65;6.75;;;;;;;;;;5025089;28;20057;-70
2022/06/22 11:06:54;;;;;;;14.50;6.55;;;;;;;;;;5024971;28;20056;-68
2022/06/22 11:09:20;;;;;;;;;;;;;;;;;;5025210;28;20188;-70
2022/06/22 11:11:59;;;;;;;17.55;6.82;;;;;;;;;;5039039;28;19997;-68
2022/06/22 11:14:43;;;;;;;22.33;7.43;;;;;;;;;;5040020;28;20168;-68
2022/06/22 11:17:17;;;;;;;17.15;6.90;;;;;;;;;;5022560;28;20053;-71
2022/06/22 11:20:02;;;;;;;19.17;6.60;;;;;;;;;;5009686;28;20464;-70
2022/06/22 11:22:29;;;;;;;13.25;6.28;;;;;;;;;;5008898;28;20049;-69
2022/06/22 11:24:55;;;;;;;13.73;6.78;;;;;;;;;;5025595;28;20050;-73
2022/06/22 11:33:17;;;;;;;14.80;6.10;;;;;;;;;;5005914;28;20111;-68
2022/06/22 11:35:55;;;;;;;20.98;5.90;;;;;;;;;;5005499;28;20130;-69
2022/06/22 11:38:39;;;;;;;16.02;7.05;;;;;;;;;;5011249;28;20080;-72
2022/06/22 11:41:05;;;;;;;14.38;5.85;;;;;;;;;;5025640;28;20049;-69
2022/06/22 11:43:31;;;;;;;;;;;;;;;;;;5025154;28;20078;-68
2022/06/22 11:46:05;;;;;;;17.40;6.47;;;;;;;;;;5023833;28;20293;-69
2022/06/22 11:48:44;;;;;;;17.70;6.18;;;;;;;;;;5023028;28;20393;-70
2022/06/22 11:51:27;;;;;;;18.15;6.18;;;;;;;;;;5023929;28;20056;-68
2022/06/22 11:54:11;;;;;;;15.13;5.82;;;;;;;;;;5024155;28;20068;-69
2022/06/22 11:56:49;;;;;;;15.68;7.13;;;;;;;;;;5024693;28;20085;-69
2022/06/22 11:59:15;;;;;;;14.25;6.35;;;;;;;;;;5025539;28;20049;-68
2022/06/22 12:01:41;;;;;;;;;;;;;;;;;;5025362;28;20052;-67
2022/06/22 12:04:26;;;;;;;15.93;6.28;;;;;;;;;;5024398;28;20070;-69
2022/06/22 12:06:59;;;;;;;16.80;6.50;;;;;;;;;;5023119;28;20706;-68
2022/06/22 12:09:31;;;;;;;16.52;7.13;;;;;;;;;;5025290;28;20063;-67
2022/06/22 12:12:00;;;;;;;15.48;6.38;;;;;;;;;;5024929;28;20041;-68
2022/06/22 12:17:31;;;;;;;15.43;5.93;;;;;;;;;;5029267;28;20155;-68
2022/06/22 12:20:04;;;;;;;14.05;6.05;;;;;;;;;;5028864;28;20053;-69
2022/06/22 12:22:42;;;;;;;14.95;6.32;;;;;;;;;;5027660;28;20076;-68
2022/06/22 12:25:27;;;;;;;15.85;5.97;;;;;;;;;;5028548;28;20067;-68
2022/06/22 12:28:03;;;;;;;16.95;7.00;;;;;;;;;;5026779;28;20048;-68
2022/06/22 12:30:35;;;;;;;17.08;6.13;;;;;;;;;;5020232;28;20042;-67
2022/06/22 12:33:09;;;;;;;17.35;6.25;;;;;;;;;;5023148;28;20080;-68
2022/06/22 12:35:39;;;;;;;15.23;6.05;;;;;;;;;;5023207;28;20132;-68
2022/06/22 12:38:24;;;;;;;16.27;6.18;;;;;;;;;;5023068;28;20392;-69
2022/06/22 12:40:50;;;;;;;13.63;5.57;;;;;;;;;;5025146;28;20168;-70
2022/06/22 12:43:16;;;;;;;;;;;;;;;;;;5018862;28;20081;-68
2022/06/22 12:45:52;;;;;;;14.85;6.30;;;;;;;;;;5028486;28;19972;-69
2022/06/22 12:48:18;;;;;;;16.33;6.28;;;;;;;;;;5027904;28;20167;-70
2022/06/22 12:50:50;;;;;;;17.13;6.40;;;;;;;;;;5031192;28;20168;-69
2022/06/22 12:53:20;;;;;;;14.25;6.25;;;;;;;;;;5036999;28;20071;-69
2022/06/22 12:56:07;;;;;;;15.63;6.60;;;;;;;;;;5039469;28;20116;-71
2022/06/22 12:58:51;;;;;;;18.65;6.65;;;;;;;;;;5012291;28;20085;-69
2022/06/22 13:01:18;;;;;;;17.77;6.13;;;;;;;;;;5027728;28;20068;-68
2022/06/22 13:03:48;;;;;;;14.85;5.55;;;;;;;;;;5025678;28;20053;-69
2022/06/22 13:06:15;;;;;;;15.40;6.25;;;;;;;;;;5033420;28;20132;-69
2022/06/22 13:08:41;;;;;;;16.40;6.50;;;;;;;;;;5024312;28;20050;-70
2022/06/22 13:11:13;;;;;;;17.58;5.60;;;;;;;;;;5027562;28;20055;-71
2022/06/22 13:13:54;;;;;;;17.20;6.10;;;;;;;;;;5023609;28;20053;-70
2022/06/22 13:16:30;;;;;;;14.52;5.82;;;;;;;;;;5023913;28;20124;-69
2022/06/22 13:19:01;;;;;;;14.88;6.43;;;;;;;;;;5025945;28;20468;-69
2022/06/22 13:21:34;;;;;;;14.05;6.03;;;;;;;;;;5027974;28;20076;-68
2022/06/22 13:24:08;;;;;;;15.68;6.28;;;;;;;;;;5026790;28;20141;-70
2022/06/22 13:26:47;;;;;;;15.68;8.75;;;;;;;;;;5027409;28;20457;-68
2022/06/22 13:29:28;;;;;;;15.90;6.22;;;;;;;;;;5026739;28;20503;-67
2022/06/22 13:31:57;;;;;;;17.15;9.27;;;;;;;;;;5026993;28;20060;-68
2022/06/22 13:34:27;;;;;;;18.65;6.80;;;;;;;;;;5033403;28;20045;-69
2022/06/22 13:37:08;;;;;;;20.02;8.55;;;;;;;;;;5032527;28;20042;-69
2022/06/22 13:39:53;;;;;;;19.85;8.10;;;;;;;;;;5024799;28;20124;-69
2022/06/22 13:42:19;;;;;;;18.65;10.75;;;;;;;;;;5025792;28;20123;-70
2022/06/22 13:44:48;;;;;;;19.90;9.00;;;;;;;;;;5025471;28;20049;-69
2022/06/22 13:47:17;;;;;;;19.92;9.63;;;;;;;;;;5026377;28;20049;-68
2022/06/22 13:49:44;;;;;;;22.25;12.35;;;;;;;;;;5027155;28;20137;-67
2022/06/22 13:52:16;;;;;;;21.75;9.98;;;;;;;;;;5035738;28;20053;-68
2022/06/22 13:54:56;;;;;;;20.30;8.15;;;;;;;;;;5024821;28;20060;-68
2022/06/22 13:57:22;;;;;;;20.13;10.35;;;;;;;;;;5027183;28;20122;-67
2022/06/22 13:59:48;;;;;;;;;;;;;;;;;;5036617;28;20083;-67
2022/06/22 14:02:17;;;;;;;17.38;8.70;;;;;;;;;;5029547;28;19991;-68
2022/06/22 14:04:53;;;;;;;18.88;8.82;;;;;;;;;;5016936;28;20124;-68
2022/06/22 14:07:19;;;;;;;;;;;;;;;;;;5027138;28;20088;-67
2022/06/22 14:09:57;;;;;;;21.80;10.23;;;;;;;;;;5026868;28;20070;-68
2022/06/22 14:12:26;;;;;;;16.88;8.50;;;;;;;;;;5027245;28;20084;-67
2022/06/22 14:15:10;;;;;;;18.13;8.50;;;;;;;;;;5026261;28;20092;-68
2022/06/22 14:17:38;;;;;;;21.73;11.10;;;;;;;;;;5018149;28;20057;-68
2022/06/22 14:20:20;;;;;;;23.50;8.95;;;;;;;;;;5026512;28;20455;-68
2022/06/22 14:22:49;;;;;;;18.73;8.73;;;;;;;;;;5026881;28;20042;-69
2022/06/22 14:25:19;;;;;;;17.70;8.27;;;;;;;;;;5027322;28;20140;-69
2022/06/22 14:27:55;;;;;;;17.92;7.47;;;;;;;;;;5027173;28;20121;-68
2022/06/22 14:30:29;;;;;;;18.17;8.80;;;;;;;;;;5027046;28;20129;-68
2022/06/22 14:32:58;;;;;;;21.92;9.90;;;;;;;;;;5016069;28;20081;-68
2022/06/22 14:35:27;;;;;;;17.63;8.27;;;;;;;;;;5021483;28;20132;-68
2022/06/22 14:37:56;;;;;;;19.17;8.80;;;;;;;;;;5017288;28;20524;-69
2022/06/22 14:40:31;;;;;;;15.93;7.75;;;;;;;;;;5026605;28;20046;-68
2022/06/22 14:43:04;;;;;;;15.48;7.22;;;;;;;;;;5025781;28;20101;-69
2022/06/22 14:45:35;;;;;;;17.65;8.02;;;;;;;;;;5041081;28;20052;-70
2022/06/22 14:48:09;;;;;;;18.30;8.70;;;;;;;;;;5026524;28;20041;-71
2022/06/22 14:50:41;;;;;;;19.70;8.93;;;;;;;;;;5024341;28;20149;-70
2022/06/22 14:53:13;;;;;;;20.70;8.23;;;;;;;;;;5025015;28;20446;-69
2022/06/22 14:55:46;;;;;;;16.77;6.32;;;;;;;;;;5023827;28;20093;-69
2022/06/22 14:58:30;;;;;;;19.90;7.60;;;;;;;;;;5025753;28;20098;-69
2022/06/22 15:01:17;;;;;;;21.40;8.70;;;;;;;;;;5025446;28;20052;-70
2022/06/22 15:03:43;;;;;;;19.60;7.78;;;;;;;;;;5024912;28;20151;-69
2022/06/22 15:06:21;;;;;;;15.77;7.88;;;;;;;;;;5023828;28;20088;-69
2022/06/22 15:09:02;;;;;;;15.93;7.38;;;;;;;;;;5026049;28;20155;-68
2022/06/22 15:14:22;;;;;;;18.92;7.40;;;;;;;;;;5025715;28;20113;-68
2022/06/22 15:16:51;;;;;;;15.48;6.50;;;;;;;;;;5023375;28;20392;-70
2022/06/22 15:19:22;;;;;;;20.15;7.10;;;;;;;;;;5025072;28;20170;-68
2022/06/22 15:21:52;;;;;;;17.17;7.05;;;;;;;;;;5025667;28;20042;-67
2022/06/22 15:24:22;;;;;;;15.05;6.80;;;;;;;;;;5024622;28;20057;-67